sensor_id;sensor_type;location;lat;lon;timestamp;temperature;humidity
46562;DHT22;32289;42.688;23.330;2024-03-23T00:57:17;4.30;99.90
46562;DHT22;32289;42.688;23.330;2024-03-23T01:00:58;4.20;99.90
46562;DHT22;32289;42.688;23.330;2024-03-23T01:04:39;4.20;99.90
46562;DHT22;32289;42.688;23.330;2024-03-23T01:08:19;4.00;99.90
46562;DHT22;32289;42.688;23.330;2024-03-23T01:12:00;4.10;99.90
46562;DHT22;32289;42.688;23.330;2024-03-23T01:15:51;4.20;99.90
46562;DHT22;32289;42.688;23.330;2024-03-23T01:19:34;4.00;99.90
46562;DHT22;32289;42.688;23.330;2024-03-23T01:23:15;4.00;99.90
46562;DHT22;32289;42.688;23.330;2024-03-23T01:26:56;4.00;99.90
46562;DHT22;32289;42.688;23.330;2024-03-23T01:30:37;4.00;99.90
46562;DHT22;32289;42.688;23.330;2024-03-23T01:34:18;3.90;99.90
46562;DHT22;32289;42.688;23.330;2024-03-23T01:38:00;4.00;99.90
46562;DHT22;32289;42.688;23.330;2024-03-23T01:41:41;3.80;99.90
46562;DHT22;32289;42.688;23.330;2024-03-23T01:45:23;3.80;99.90
46562;DHT22;32289;42.688;23.330;2024-03-23T01:49:07;3.70;99.90
46562;DHT22;32289;42.688;23.330;2024-03-23T01:52:49;3.50;99.90
46562;DHT22;32289;42.688;23.330;2024-03-23T01:56:31;3.50;99.90
46562;DHT22;32289;42.688;23.330;2024-03-23T02:00:14;3.70;99.90
46562;DHT22;32289;42.688;23.330;2024-03-23T02:03:54;3.60;99.90
46562;DHT22;32289;42.688;23.330;2024-03-23T02:07:35;3.50;99.90
46562;DHT22;32289;42.688;23.330;2024-03-23T02:11:16;3.50;99.90
46562;DHT22;32289;42.688;23.330;2024-03-23T02:14:57;3.50;99.90
46562;DHT22;32289;42.688;23.330;2024-03-23T02:18:38;3.50;99.90
46562;DHT22;32289;42.688;23.330;2024-03-23T02:22:19;3.50;99.90
46562;DHT22;32289;42.688;23.330;2024-03-23T02:26:00;3.50;99.90
46562;DHT22;32289;42.688;23.330;2024-03-23T02:29:40;3.40;99.90
46562;DHT22;32289;42.688;23.330;2024-03-23T02:33:21;3.40;99.90
46562;DHT22;32289;42.688;23.330;2024-03-23T02:37:02;3.40;99.90
46562;DHT22;32289;42.688;23.330;2024-03-23T02:40:43;3.30;99.90
46562;DHT22;32289;42.688;23.330;2024-03-23T02:44:23;3.40;99.90
46562;DHT22;32289;42.688;23.330;2024-03-23T02:48:04;3.30;99.90
46562;DHT22;32289;42.688;23.330;2024-03-23T02:51:45;3.30;99.90
46562;DHT22;32289;42.688;23.330;2024-03-23T02:55:28;3.20;99.90
46562;DHT22;32289;42.688;23.330;2024-03-23T02:59:09;3.10;99.90
46562;DHT22;32289;42.688;23.330;2024-03-23T03:02:50;3.00;99.90
46562;DHT22;32289;42.688;23.330;2024-03-23T03:06:31;3.00;99.90
46562;DHT22;32289;42.688;23.330;2024-03-23T03:10:12;3.00;99.90
46562;DHT22;32289;42.688;23.330;2024-03-23T03:13:53;3.00;99.90
46562;DHT22;32289;42.688;23.330;2024-03-23T03:17:34;2.90;99.90
46562;DHT22;32289;42.688;23.330;2024-03-23T03:21:14;2.90;99.90
46562;DHT22;32289;42.688;23.330;2024-03-23T03:24:56;2.80;99.90
46562;DHT22;32289;42.688;23.330;2024-03-23T03:28:37;2.80;99.90
46562;DHT22;32289;42.688;23.330;2024-03-23T03:32:32;2.70;99.90
46562;DHT22;32289;42.688;23.330;2024-03-23T03:36:13;2.60;99.90
46562;DHT22;32289;42.688;23.330;2024-03-23T03:39:54;2.40;99.90
46562;DHT22;32289;42.688;23.330;2024-03-23T03:43:34;2.30;99.90
46562;DHT22;32289;42.688;23.330;2024-03-23T03:47:15;2.50;99.90
46562;DHT22;32289;42.688;23.330;2024-03-23T03:50:56;2.40;99.90
46562;DHT22;32289;42.688;23.330;2024-03-23T03:54:36;2.50;99.90
46562;DHT22;32289;42.688;23.330;2024-03-23T03:58:17;2.30;99.90
46562;DHT22;32289;42.688;23.330;2024-03-23T04:01:58;2.40;99.90
46562;DHT22;32289;42.688;23.330;2024-03-23T04:05:39;2.40;99.90
46562;DHT22;32289;42.688;23.330;2024-03-23T04:09:19;2.30;99.90
46562;DHT22;32289;42.688;23.330;2024-03-23T04:13:00;2.30;99.90
46562;DHT22;32289;42.688;23.330;2024-03-23T04:16:41;2.30;99.90
46562;DHT22;32289;42.688;23.330;2024-03-23T04:20:22;2.40;99.90
46562;DHT22;32289;42.688;23.330;2024-03-23T04:24:03;2.30;99.90
46562;DHT22;32289;42.688;23.330;2024-03-23T04:27:44;2.30;99.90
46562;DHT22;32289;42.688;23.330;2024-03-23T04:31:24;2.30;99.90
46562;DHT22;32289;42.688;23.330;2024-03-23T04:35:06;2.30;99.90
46562;DHT22;32289;42.688;23.330;2024-03-23T04:38:47;2.30;99.90
46562;DHT22;32289;42.688;23.330;2024-03-23T04:42:30;2.20;99.90
46562;DHT22;32289;42.688;23.330;2024-03-23T04:46:11;2.30;99.90
46562;DHT22;32289;42.688;23.330;2024-03-23T04:49:52;2.30;99.90
46562;DHT22;32289;42.688;23.330;2024-03-23T04:53:32;2.40;99.90
46562;DHT22;32289;42.688;23.330;2024-03-23T04:57:13;2.40;99.90
46562;DHT22;32289;42.688;23.330;2024-03-23T05:00:55;2.30;99.90
46562;DHT22;32289;42.688;23.330;2024-03-23T05:04:36;2.30;99.90
46562;DHT22;32289;42.688;23.330;2024-03-23T05:08:17;2.50;99.90
46562;DHT22;32289;42.688;23.330;2024-03-23T05:11:58;2.60;99.90
46562;DHT22;32289;42.688;23.330;2024-03-23T05:15:40;2.50;99.90
46562;DHT22;32289;42.688;23.330;2024-03-23T05:19:21;2.60;99.90
46562;DHT22;32289;42.688;23.330;2024-03-23T05:23:02;2.80;99.90
46562;DHT22;32289;42.688;23.330;2024-03-23T05:26:43;2.80;99.90
46562;DHT22;32289;42.688;23.330;2024-03-23T05:30:24;2.70;99.90
46562;DHT22;32289;42.688;23.330;2024-03-23T05:34:05;2.70;99.90
46562;DHT22;32289;42.688;23.330;2024-03-23T05:37:46;3.50;99.90
46562;DHT22;32289;42.688;23.330;2024-03-23T05:41:26;3.70;99.90
46562;DHT22;32289;42.688;23.330;2024-03-23T05:45:07;3.30;99.90
46562;DHT22;32289;42.688;23.330;2024-03-23T05:48:48;3.40;99.90
46562;DHT22;32289;42.688;23.330;2024-03-23T05:52:30;3.70;99.90
46562;DHT22;32289;42.688;23.330;2024-03-23T05:56:11;3.90;99.90
46562;DHT22;32289;42.688;23.330;2024-03-23T05:59:52;5.10;99.90
46562;DHT22;32289;42.688;23.330;2024-03-23T06:03:33;4.60;99.90
46562;DHT22;32289;42.688;23.330;2024-03-23T06:07:15;3.90;99.90
46562;DHT22;32289;42.688;23.330;2024-03-23T06:10:56;4.00;99.90
46562;DHT22;32289;42.688;23.330;2024-03-23T06:14:37;4.40;99.90
46562;DHT22;32289;42.688;23.330;2024-03-23T06:18:17;4.90;99.40
46562;DHT22;32289;42.688;23.330;2024-03-23T06:21:58;5.40;97.10
46562;DHT22;32289;42.688;23.330;2024-03-23T06:25:39;7.00;89.50
46562;DHT22;32289;42.688;23.330;2024-03-23T06:29:20;9.20;76.90
46562;DHT22;32289;42.688;23.330;2024-03-23T06:33:01;13.20;56.10
46562;DHT22;32289;42.688;23.330;2024-03-23T06:36:41;14.50;50.90
46562;DHT22;32289;42.688;23.330;2024-03-23T06:40:22;14.30;51.40
46562;DHT22;32289;42.688;23.330;2024-03-23T06:44:03;13.40;51.00
46562;DHT22;32289;42.688;23.330;2024-03-23T06:47:45;14.10;49.20
46562;DHT22;32289;42.688;23.330;2024-03-23T06:51:25;14.10;49.60
46562;DHT22;32289;42.688;23.330;2024-03-23T06:55:06;13.50;50.10
46562;DHT22;32289;42.688;23.330;2024-03-23T06:58:47;14.30;49.80
46562;DHT22;32289;42.688;23.330;2024-03-23T07:02:28;12.00;51.80
46562;DHT22;32289;42.688;23.330;2024-03-23T07:06:10;10.90;53.30
46562;DHT22;32289;42.688;23.330;2024-03-23T07:09:51;11.30;54.20
46562;DHT22;32289;42.688;23.330;2024-03-23T07:13:33;13.20;50.80
46562;DHT22;32289;42.688;23.330;2024-03-23T07:17:13;15.50;45.90
46562;DHT22;32289;42.688;23.330;2024-03-23T07:20:54;15.70;45.70
46562;DHT22;32289;42.688;23.330;2024-03-23T07:24:36;15.50;46.70
46562;DHT22;32289;42.688;23.330;2024-03-23T07:28:19;16.30;45.70
46562;DHT22;32289;42.688;23.330;2024-03-23T07:32:03;14.60;46.20
46562;DHT22;32289;42.688;23.330;2024-03-23T07:35:43;16.20;44.40
46562;DHT22;32289;42.688;23.330;2024-03-23T07:39:24;17.30;43.80
46562;DHT22;32289;42.688;23.330;2024-03-23T07:43:08;15.60;43.70
46562;DHT22;32289;42.688;23.330;2024-03-23T07:46:49;15.80;46.40
46562;DHT22;32289;42.688;23.330;2024-03-23T07:50:30;15.60;47.50
46562;DHT22;32289;42.688;23.330;2024-03-23T07:54:11;17.90;42.60
46562;DHT22;32289;42.688;23.330;2024-03-23T07:57:52;16.20;45.60
46562;DHT22;32289;42.688;23.330;2024-03-23T08:01:34;17.80;43.10
46562;DHT22;32289;42.688;23.330;2024-03-23T08:05:15;15.50;43.20
46562;DHT22;32289;42.688;23.330;2024-03-23T08:08:56;15.40;44.00
46562;DHT22;32289;42.688;23.330;2024-03-23T08:12:40;18.10;41.10
46562;DHT22;32289;42.688;23.330;2024-03-23T08:16:21;16.90;42.30
46562;DHT22;32289;42.688;23.330;2024-03-23T08:20:02;17.20;43.50
46562;DHT22;32289;42.688;23.330;2024-03-23T08:23:43;16.40;42.50
46562;DHT22;32289;42.688;23.330;2024-03-23T08:27:24;17.40;43.10
46562;DHT22;32289;42.688;23.330;2024-03-23T08:31:07;15.50;43.00
46562;DHT22;32289;42.688;23.330;2024-03-23T08:34:48;17.10;42.90
46562;DHT22;32289;42.688;23.330;2024-03-23T08:38:29;18.60;40.90
46562;DHT22;32289;42.688;23.330;2024-03-23T08:42:10;18.40;41.70
46562;DHT22;32289;42.688;23.330;2024-03-23T08:45:51;18.00;42.50
46562;DHT22;32289;42.688;23.330;2024-03-23T08:49:32;17.90;40.70
46562;DHT22;32289;42.688;23.330;2024-03-23T08:53:14;17.70;40.70
46562;DHT22;32289;42.688;23.330;2024-03-23T08:56:55;18.00;39.60
46562;DHT22;32289;42.688;23.330;2024-03-23T09:00:35;19.70;39.00
46562;DHT22;32289;42.688;23.330;2024-03-23T09:04:16;18.70;39.80
46562;DHT22;32289;42.688;23.330;2024-03-23T09:07:57;18.90;39.20
46562;DHT22;32289;42.688;23.330;2024-03-23T09:11:38;19.60;39.20
46562;DHT22;32289;42.688;23.330;2024-03-23T09:15:19;19.80;40.40
46562;DHT22;32289;42.688;23.330;2024-03-23T09:18:59;20.00;37.80
46562;DHT22;32289;42.688;23.330;2024-03-23T09:22:40;19.40;37.10
46562;DHT22;32289;42.688;23.330;2024-03-23T09:26:21;18.70;39.40
46562;DHT22;32289;42.688;23.330;2024-03-23T09:30:02;17.60;40.60
46562;DHT22;32289;42.688;23.330;2024-03-23T09:33:43;17.90;40.30
46562;DHT22;32289;42.688;23.330;2024-03-23T09:37:24;18.60;39.40
46562;DHT22;32289;42.688;23.330;2024-03-23T09:41:09;17.40;41.70
46562;DHT22;32289;42.688;23.330;2024-03-23T09:44:51;17.20;41.20
46562;DHT22;32289;42.688;23.330;2024-03-23T09:48:33;18.90;40.10
46562;DHT22;32289;42.688;23.330;2024-03-23T09:52:14;20.00;39.40
46562;DHT22;32289;42.688;23.330;2024-03-23T09:55:55;18.10;40.00
46562;DHT22;32289;42.688;23.330;2024-03-23T09:59:35;17.70;41.10
46562;DHT22;32289;42.688;23.330;2024-03-23T10:03:16;17.50;41.20
46562;DHT22;32289;42.688;23.330;2024-03-23T10:07:12;16.90;41.90
46562;DHT22;32289;42.688;23.330;2024-03-23T10:10:53;16.80;42.40
46562;DHT22;32289;42.688;23.330;2024-03-23T10:14:34;17.50;41.70
46562;DHT22;32289;42.688;23.330;2024-03-23T10:18:19;19.80;38.50
46562;DHT22;32289;42.688;23.330;2024-03-23T10:22:00;19.50;38.70
46562;DHT22;32289;42.688;23.330;2024-03-23T10:25:40;19.80;38.10
46562;DHT22;32289;42.688;23.330;2024-03-23T10:29:21;19.20;37.30
46562;DHT22;32289;42.688;23.330;2024-03-23T10:33:12;18.60;39.20
46562;DHT22;32289;42.688;23.330;2024-03-23T10:36:53;18.70;38.80
46562;DHT22;32289;42.688;23.330;2024-03-23T10:40:35;18.10;39.40
46562;DHT22;32289;42.688;23.330;2024-03-23T10:44:19;19.00;38.90
46562;DHT22;32289;42.688;23.330;2024-03-23T10:48:00;19.30;37.70
46562;DHT22;32289;42.688;23.330;2024-03-23T10:51:41;18.90;38.00
46562;DHT22;32289;42.688;23.330;2024-03-23T10:55:23;18.20;38.70
46562;DHT22;32289;42.688;23.330;2024-03-23T10:59:05;19.30;36.60
46562;DHT22;32289;42.688;23.330;2024-03-23T11:02:48;18.30;37.10
46562;DHT22;32289;42.688;23.330;2024-03-23T11:06:38;17.60;38.60
46562;DHT22;32289;42.688;23.330;2024-03-23T11:10:28;18.10;38.60
46562;DHT22;32289;42.688;23.330;2024-03-23T11:14:22;19.10;37.70
46562;DHT22;32289;42.688;23.330;2024-03-23T11:18:06;18.10;37.90
46562;DHT22;32289;42.688;23.330;2024-03-23T11:21:53;18.30;39.30
46562;DHT22;32289;42.688;23.330;2024-03-23T11:25:34;19.30;37.00
46562;DHT22;32289;42.688;23.330;2024-03-23T11:29:17;18.50;38.60
46562;DHT22;32289;42.688;23.330;2024-03-23T11:32:58;18.70;38.50
46562;DHT22;32289;42.688;23.330;2024-03-23T11:36:41;18.70;38.10
46562;DHT22;32289;42.688;23.330;2024-03-23T11:40:22;18.30;38.90
46562;DHT22;32289;42.688;23.330;2024-03-23T11:44:17;17.70;39.70
46562;DHT22;32289;42.688;23.330;2024-03-23T11:48:05;18.00;39.50
46562;DHT22;32289;42.688;23.330;2024-03-23T11:51:46;18.10;38.90
46562;DHT22;32289;42.688;23.330;2024-03-23T11:55:27;18.00;39.00
46562;DHT22;32289;42.688;23.330;2024-03-23T11:59:08;17.90;39.50
46562;DHT22;32289;42.688;23.330;2024-03-23T12:02:49;19.30;38.00
46562;DHT22;32289;42.688;23.330;2024-03-23T12:06:29;20.30;37.10
46562;DHT22;32289;42.688;23.330;2024-03-23T12:10:10;19.70;36.60
46562;DHT22;32289;42.688;23.330;2024-03-23T12:13:51;19.90;36.30
46562;DHT22;32289;42.688;23.330;2024-03-23T12:17:32;19.40;36.70
46562;DHT22;32289;42.688;23.330;2024-03-23T12:21:13;19.50;36.60
46562;DHT22;32289;42.688;23.330;2024-03-23T12:24:54;18.50;37.40
46562;DHT22;32289;42.688;23.330;2024-03-23T12:28:35;18.90;37.60
46562;DHT22;32289;42.688;23.330;2024-03-23T12:32:15;19.30;36.70
46562;DHT22;32289;42.688;23.330;2024-03-23T12:35:56;19.10;37.10
46562;DHT22;32289;42.688;23.330;2024-03-23T12:39:37;19.90;35.60
46562;DHT22;32289;42.688;23.330;2024-03-23T12:43:18;19.20;33.50
46562;DHT22;32289;42.688;23.330;2024-03-23T12:46:59;19.10;34.20
46562;DHT22;32289;42.688;23.330;2024-03-23T12:50:40;18.70;34.30
46562;DHT22;32289;42.688;23.330;2024-03-23T12:54:20;18.90;34.70
46562;DHT22;32289;42.688;23.330;2024-03-23T12:58:01;19.30;34.40
46562;DHT22;32289;42.688;23.330;2024-03-23T13:01:43;19.70;34.10
46562;DHT22;32289;42.688;23.330;2024-03-23T13:05:26;19.20;31.90
46562;DHT22;32289;42.688;23.330;2024-03-23T13:09:07;18.60;32.70
46562;DHT22;32289;42.688;23.330;2024-03-23T13:12:48;18.70;31.90
46562;DHT22;32289;42.688;23.330;2024-03-23T13:16:28;18.90;30.60
46562;DHT22;32289;42.688;23.330;2024-03-23T13:20:10;18.60;30.90
46562;DHT22;32289;42.688;23.330;2024-03-23T13:23:54;18.70;31.80
46562;DHT22;32289;42.688;23.330;2024-03-23T13:27:35;18.30;31.00
46562;DHT22;32289;42.688;23.330;2024-03-23T13:31:16;18.50;31.10
46562;DHT22;32289;42.688;23.330;2024-03-23T13:34:57;18.90;31.20
46562;DHT22;32289;42.688;23.330;2024-03-23T13:38:38;19.30;31.10
46562;DHT22;32289;42.688;23.330;2024-03-23T13:42:18;19.20;30.60
46562;DHT22;32289;42.688;23.330;2024-03-23T13:45:59;18.80;31.70
46562;DHT22;32289;42.688;23.330;2024-03-23T13:49:40;19.10;31.40
46562;DHT22;32289;42.688;23.330;2024-03-23T13:53:21;18.70;31.20
46562;DHT22;32289;42.688;23.330;2024-03-23T13:57:04;18.50;31.60
46562;DHT22;32289;42.688;23.330;2024-03-23T14:00:45;18.70;32.00
46562;DHT22;32289;42.688;23.330;2024-03-23T14:04:26;18.60;32.10
46562;DHT22;32289;42.688;23.330;2024-03-23T14:08:08;18.40;31.80
46562;DHT22;32289;42.688;23.330;2024-03-23T14:11:49;18.20;31.80
46562;DHT22;32289;42.688;23.330;2024-03-23T14:15:31;18.50;31.70
46562;DHT22;32289;42.688;23.330;2024-03-23T14:19:12;18.60;32.10
46562;DHT22;32289;42.688;23.330;2024-03-23T14:22:53;18.80;32.80
46562;DHT22;32289;42.688;23.330;2024-03-23T14:26:34;18.80;31.70
46562;DHT22;32289;42.688;23.330;2024-03-23T14:30:16;18.40;31.80
46562;DHT22;32289;42.688;23.330;2024-03-23T14:33:57;18.50;32.60
46562;DHT22;32289;42.688;23.330;2024-03-23T14:37:38;18.40;32.90
46562;DHT22;32289;42.688;23.330;2024-03-23T14:41:19;18.20;32.80
46562;DHT22;32289;42.688;23.330;2024-03-23T14:45:00;18.30;32.30
46562;DHT22;32289;42.688;23.330;2024-03-23T14:48:43;18.70;34.00
46562;DHT22;32289;42.688;23.330;2024-03-23T14:52:24;18.70;33.10
46562;DHT22;32289;42.688;23.330;2024-03-23T14:56:06;18.70;32.70
46562;DHT22;32289;42.688;23.330;2024-03-23T14:59:47;18.40;33.40
46562;DHT22;32289;42.688;23.330;2024-03-23T15:03:29;18.40;34.20
46562;DHT22;32289;42.688;23.330;2024-03-23T15:07:10;18.00;34.50
46562;DHT22;32289;42.688;23.330;2024-03-23T15:10:51;18.10;34.30
46562;DHT22;32289;42.688;23.330;2024-03-23T15:14:32;17.90;34.40
46562;DHT22;32289;42.688;23.330;2024-03-23T15:18:13;17.90;36.90
46562;DHT22;32289;42.688;23.330;2024-03-23T15:21:55;18.00;35.00
46562;DHT22;32289;42.688;23.330;2024-03-23T15:25:37;18.10;35.80
46562;DHT22;32289;42.688;23.330;2024-03-23T15:29:18;18.20;35.30
46562;DHT22;32289;42.688;23.330;2024-03-23T15:32:58;17.90;35.50
46562;DHT22;32289;42.688;23.330;2024-03-23T15:36:39;17.90;35.80
46562;DHT22;32289;42.688;23.330;2024-03-23T15:40:20;17.60;35.90
46562;DHT22;32289;42.688;23.330;2024-03-23T15:44:01;17.70;36.50
46562;DHT22;32289;42.688;23.330;2024-03-23T15:47:42;17.50;36.50
46562;DHT22;32289;42.688;23.330;2024-03-23T15:51:23;17.20;36.70
46562;DHT22;32289;42.688;23.330;2024-03-23T15:55:04;17.30;37.10
46562;DHT22;32289;42.688;23.330;2024-03-23T15:58:48;17.30;37.00
46562;DHT22;32289;42.688;23.330;2024-03-23T16:02:29;17.40;37.50
46562;DHT22;32289;42.688;23.330;2024-03-23T16:06:10;17.30;37.20
46562;DHT22;32289;42.688;23.330;2024-03-23T16:09:50;17.20;38.90
46562;DHT22;32289;42.688;23.330;2024-03-23T16:13:35;17.10;36.20
46562;DHT22;32289;42.688;23.330;2024-03-23T16:17:15;16.90;34.50
46562;DHT22;32289;42.688;23.330;2024-03-23T16:20:57;16.80;34.70
46562;DHT22;32289;42.688;23.330;2024-03-23T16:24:38;16.70;34.60
46562;DHT22;32289;42.688;23.330;2024-03-23T16:28:19;16.60;34.60
46562;DHT22;32289;42.688;23.330;2024-03-23T16:32:00;16.60;36.50
46562;DHT22;32289;42.688;23.330;2024-03-23T16:35:40;16.60;36.70
46562;DHT22;32289;42.688;23.330;2024-03-23T16:39:22;16.60;36.90
46562;DHT22;32289;42.688;23.330;2024-03-23T16:43:03;16.30;37.90
46562;DHT22;32289;42.688;23.330;2024-03-23T16:46:44;16.20;38.30
46562;DHT22;32289;42.688;23.330;2024-03-23T16:50:24;16.30;40.10
46562;DHT22;32289;42.688;23.330;2024-03-23T16:54:05;16.10;39.00
46562;DHT22;32289;42.688;23.330;2024-03-23T16:57:47;16.10;39.80
46562;DHT22;32289;42.688;23.330;2024-03-23T17:01:27;16.10;40.30
46562;DHT22;32289;42.688;23.330;2024-03-23T17:05:08;15.80;39.80
46562;DHT22;32289;42.688;23.330;2024-03-23T17:08:49;15.70;40.70
46562;DHT22;32289;42.688;23.330;2024-03-23T17:12:30;15.50;41.10
46562;DHT22;32289;42.688;23.330;2024-03-23T17:16:10;15.50;42.10
46562;DHT22;32289;42.688;23.330;2024-03-23T17:19:59;15.40;41.00
46562;DHT22;32289;42.688;23.330;2024-03-23T17:23:40;15.50;41.00
46562;DHT22;32289;42.688;23.330;2024-03-23T17:27:21;15.20;42.20
46562;DHT22;32289;42.688;23.330;2024-03-23T17:31:02;15.20;43.40
46562;DHT22;32289;42.688;23.330;2024-03-23T17:34:43;15.10;42.80
46562;DHT22;32289;42.688;23.330;2024-03-23T17:38:24;15.00;42.70
46562;DHT22;32289;42.688;23.330;2024-03-23T17:42:05;15.00;43.20
46562;DHT22;32289;42.688;23.330;2024-03-23T17:45:45;15.10;42.60
46562;DHT22;32289;42.688;23.330;2024-03-23T17:49:26;15.10;43.10
46562;DHT22;32289;42.688;23.330;2024-03-23T17:53:07;15.10;43.10
46562;DHT22;32289;42.688;23.330;2024-03-23T17:56:47;14.90;42.30
46562;DHT22;32289;42.688;23.330;2024-03-23T18:00:30;14.90;43.40
46562;DHT22;32289;42.688;23.330;2024-03-23T18:04:16;14.50;44.40
46562;DHT22;32289;42.688;23.330;2024-03-23T18:07:57;14.20;44.90
46562;DHT22;32289;42.688;23.330;2024-03-23T18:11:38;14.20;45.20
46562;DHT22;32289;42.688;23.330;2024-03-23T18:15:18;14.30;45.30
46562;DHT22;32289;42.688;23.330;2024-03-23T18:18:59;14.00;46.00
46562;DHT22;32289;42.688;23.330;2024-03-23T18:22:40;13.90;45.50
46562;DHT22;32289;42.688;23.330;2024-03-23T18:26:21;13.80;48.00
46562;DHT22;32289;42.688;23.330;2024-03-23T18:30:04;13.70;49.00
46562;DHT22;32289;42.688;23.330;2024-03-23T18:33:45;13.60;47.30
46562;DHT22;32289;42.688;23.330;2024-03-23T18:37:25;13.40;48.10
46562;DHT22;32289;42.688;23.330;2024-03-23T18:41:07;13.20;48.40
46562;DHT22;32289;42.688;23.330;2024-03-23T18:44:48;13.00;49.00
46562;DHT22;32289;42.688;23.330;2024-03-23T18:48:29;12.80;49.30
46562;DHT22;32289;42.688;23.330;2024-03-23T18:52:11;12.60;50.50
46562;DHT22;32289;42.688;23.330;2024-03-23T18:55:54;12.40;50.60
46562;DHT22;32289;42.688;23.330;2024-03-23T18:59:34;12.20;52.50
46562;DHT22;32289;42.688;23.330;2024-03-23T19:03:15;12.00;52.10
46562;DHT22;32289;42.688;23.330;2024-03-23T19:06:56;11.90;52.70
46562;DHT22;32289;42.688;23.330;2024-03-23T19:10:37;11.80;53.00
46562;DHT22;32289;42.688;23.330;2024-03-23T19:14:17;11.70;54.10
46562;DHT22;32289;42.688;23.330;2024-03-23T19:17:58;11.50;52.70
46562;DHT22;32289;42.688;23.330;2024-03-23T19:21:39;11.30;53.20
46562;DHT22;32289;42.688;23.330;2024-03-23T19:25:19;11.40;53.00
46562;DHT22;32289;42.688;23.330;2024-03-23T19:29:00;11.60;53.50
46562;DHT22;32289;42.688;23.330;2024-03-23T19:32:41;11.40;53.00
46562;DHT22;32289;42.688;23.330;2024-03-23T19:36:22;11.40;53.20
46562;DHT22;32289;42.688;23.330;2024-03-23T19:40:03;11.30;53.50
46562;DHT22;32289;42.688;23.330;2024-03-23T19:43:44;11.20;53.60
46562;DHT22;32289;42.688;23.330;2024-03-23T19:47:25;11.30;53.80
46562;DHT22;32289;42.688;23.330;2024-03-23T19:51:05;11.10;54.60
46562;DHT22;32289;42.688;23.330;2024-03-23T19:54:46;11.00;54.70
46562;DHT22;32289;42.688;23.330;2024-03-23T19:58:27;10.90;54.80
46562;DHT22;32289;42.688;23.330;2024-03-23T20:02:08;11.00;54.70
46562;DHT22;32289;42.688;23.330;2024-03-23T20:05:58;10.80;55.50
46562;DHT22;32289;42.688;23.330;2024-03-23T20:09:39;10.50;55.30
46562;DHT22;32289;42.688;23.330;2024-03-23T20:13:20;10.50;55.50
46562;DHT22;32289;42.688;23.330;2024-03-23T20:17:01;10.40;55.70
46562;DHT22;32289;42.688;23.330;2024-03-23T20:20:42;10.20;56.00
46562;DHT22;32289;42.688;23.330;2024-03-23T20:24:25;10.20;57.00
46562;DHT22;32289;42.688;23.330;2024-03-23T20:28:06;10.20;56.50
46562;DHT22;32289;42.688;23.330;2024-03-23T20:31:48;10.10;56.40
46562;DHT22;32289;42.688;23.330;2024-03-23T20:35:28;10.00;56.40
46562;DHT22;32289;42.688;23.330;2024-03-23T20:39:10;9.90;56.60
46562;DHT22;32289;42.688;23.330;2024-03-23T20:42:51;10.00;56.50
46562;DHT22;32289;42.688;23.330;2024-03-23T20:46:32;10.00;56.40
46562;DHT22;32289;42.688;23.330;2024-03-23T20:50:13;10.10;56.00
46562;DHT22;32289;42.688;23.330;2024-03-23T20:53:53;10.00;56.70
46562;DHT22;32289;42.688;23.330;2024-03-23T20:57:34;9.90;56.40
46562;DHT22;32289;42.688;23.330;2024-03-23T21:01:15;10.10;57.10
46562;DHT22;32289;42.688;23.330;2024-03-23T21:04:56;10.00;57.00
46562;DHT22;32289;42.688;23.330;2024-03-23T21:08:36;10.00;57.60
46562;DHT22;32289;42.688;23.330;2024-03-23T21:12:17;9.80;57.90
46562;DHT22;32289;42.688;23.330;2024-03-23T21:15:58;9.70;58.20
46562;DHT22;32289;42.688;23.330;2024-03-23T21:19:42;9.60;58.00
46562;DHT22;32289;42.688;23.330;2024-03-23T21:23:30;9.80;58.00
46562;DHT22;32289;42.688;23.330;2024-03-23T21:27:12;9.60;58.30
46562;DHT22;32289;42.688;23.330;2024-03-23T21:30:53;9.60;58.40
46562;DHT22;32289;42.688;23.330;2024-03-23T21:34:33;9.60;58.20
46562;DHT22;32289;42.688;23.330;2024-03-23T21:38:14;9.40;58.60
46562;DHT22;32289;42.688;23.330;2024-03-23T21:41:55;9.40;59.60
46562;DHT22;32289;42.688;23.330;2024-03-23T21:45:36;9.40;59.10
46562;DHT22;32289;42.688;23.330;2024-03-23T21:49:16;9.40;59.00
46562;DHT22;32289;42.688;23.330;2024-03-23T21:52:57;9.50;58.70
46562;DHT22;32289;42.688;23.330;2024-03-23T21:56:38;9.40;58.50
46562;DHT22;32289;42.688;23.330;2024-03-23T22:00:19;9.50;59.60
46562;DHT22;32289;42.688;23.330;2024-03-23T22:04:00;9.40;59.90
46562;DHT22;32289;42.688;23.330;2024-03-23T22:07:41;9.20;59.60
46562;DHT22;32289;42.688;23.330;2024-03-23T22:11:21;9.20;59.80
46562;DHT22;32289;42.688;23.330;2024-03-23T22:15:02;9.30;63.20
46562;DHT22;32289;42.688;23.330;2024-03-23T22:18:43;9.20;62.60
46562;DHT22;32289;42.688;23.330;2024-03-23T22:22:24;9.00;61.40
46562;DHT22;32289;42.688;23.330;2024-03-23T22:26:06;9.00;60.50
46562;DHT22;32289;42.688;23.330;2024-03-23T22:29:47;8.90;61.50
46562;DHT22;32289;42.688;23.330;2024-03-23T22:33:28;8.90;61.80
46562;DHT22;32289;42.688;23.330;2024-03-23T22:37:09;9.10;63.20
46562;DHT22;32289;42.688;23.330;2024-03-23T22:40:54;9.00;62.40
46562;DHT22;32289;42.688;23.330;2024-03-23T22:44:35;9.00;65.00
46562;DHT22;32289;42.688;23.330;2024-03-23T22:48:16;8.90;65.90
46562;DHT22;32289;42.688;23.330;2024-03-23T22:51:56;8.80;64.50
46562;DHT22;32289;42.688;23.330;2024-03-23T22:55:37;8.80;64.60
46562;DHT22;32289;42.688;23.330;2024-03-23T22:59:18;8.70;65.90
46562;DHT22;32289;42.688;23.330;2024-03-23T23:02:59;8.70;66.80
46562;DHT22;32289;42.688;23.330;2024-03-23T23:06:39;8.70;66.80
46562;DHT22;32289;42.688;23.330;2024-03-23T23:10:20;8.60;66.30
46562;DHT22;32289;42.688;23.330;2024-03-23T23:14:01;8.60;69.90
46562;DHT22;32289;42.688;23.330;2024-03-23T23:17:44;8.60;68.50
46562;DHT22;32289;42.688;23.330;2024-03-23T23:21:25;8.50;67.50
46562;DHT22;32289;42.688;23.330;2024-03-23T23:25:05;8.50;67.10
46562;DHT22;32289;42.688;23.330;2024-03-23T23:28:46;8.50;71.30
46562;DHT22;32289;42.688;23.330;2024-03-23T23:32:27;8.50;72.80
46562;DHT22;32289;42.688;23.330;2024-03-23T23:36:08;8.40;71.80
46562;DHT22;32289;42.688;23.330;2024-03-23T23:39:49;8.10;72.60
46562;DHT22;32289;42.688;23.330;2024-03-23T23:43:30;8.10;70.60
46562;DHT22;32289;42.688;23.330;2024-03-23T23:47:10;7.80;74.20
46562;DHT22;32289;42.688;23.330;2024-03-23T23:50:51;7.90;74.90
46562;DHT22;32289;42.688;23.330;2024-03-23T23:54:32;7.90;70.40
46562;DHT22;32289;42.688;23.330;2024-03-23T23:58:13;7.90;72.00
